createdAt,value
2022-12-08T00:00:26.346Z,100082.41
2022-12-08T00:02:29.470Z,100071.78
2022-12-08T00:04:53.544Z,100072.47
2022-12-08T00:07:13.957Z,100073.75
2022-12-08T00:09:22.300Z,100069.16
2022-12-08T00:11:25.196Z,100070.13
2022-12-08T00:13:28.099Z,100071.09
2022-12-08T00:15:31.186Z,100064.16
2022-12-08T00:17:34.127Z,100059.97
2022-12-08T00:19:37.320Z,100060.06
2022-12-08T00:21:40.596Z,100064.41
2022-12-08T00:23:43.787Z,100055.63
2022-12-08T00:25:48.380Z,100064.22
2022-12-08T00:27:51.275Z,100055.63
2022-12-08T00:29:54.351Z,100053.81
2022-12-08T00:31:57.306Z,100061.38
2022-12-08T00:34:00.613Z,100057.75
2022-12-08T00:36:07.724Z,100058.78
2022-12-08T00:38:10.780Z,100061.34
2022-12-08T00:40:13.874Z,100049.16
2022-12-08T00:42:17.387Z,100050.03
2022-12-08T00:44:20.410Z,100041.38
2022-12-08T00:46:23.386Z,100043.72
2022-12-08T00:48:26.339Z,100038.44
2022-12-08T00:50:29.297Z,100035.88
2022-12-08T00:52:32.213Z,100034.03
2022-12-08T00:54:35.555Z,100037.34
2022-12-08T00:56:39.106Z,100026.22
2022-12-08T00:58:43.525Z,100035.22
2022-12-08T01:00:46.717Z,100036.63
2022-12-08T01:02:49.985Z,100030.50
2022-12-08T01:04:54.173Z,100028.59
2022-12-08T01:06:57.181Z,100023.78
2022-12-08T01:09:00.235Z,100017.50
2022-12-08T01:11:04.619Z,100015.63
2022-12-08T01:13:07.489Z,100016.44
2022-12-08T01:15:12.252Z,100018.94
2022-12-08T01:17:15.333Z,100014.91
2022-12-08T01:19:18.465Z,100009.53
2022-12-08T01:21:21.927Z,100011.34
2022-12-08T01:23:24.899Z,100010.28
2022-12-08T01:25:27.803Z,100006.91
2022-12-08T01:27:30.788Z,100015.72
2022-12-08T01:29:34.457Z,100016.56
2022-12-08T01:31:39.467Z,100013.06
2022-12-08T01:33:42.627Z,100015.72
2022-12-08T01:35:45.479Z,100014.78
2022-12-08T01:37:48.520Z,100015.63
2022-12-08T01:39:51.351Z,100010.16
2022-12-08T01:41:54.558Z,100014.66
2022-12-08T01:44:00.099Z,100014.72
2022-12-08T01:46:03.237Z,100016.69
2022-12-08T01:48:12.239Z,100011.22
2022-12-08T01:50:17.018Z,100009.31
2022-12-08T01:52:24.978Z,100002.28
2022-12-08T01:54:30.713Z,100010.41
2022-12-08T01:56:37.734Z,99995.50
2022-12-08T01:58:44.291Z,99999.91
2022-12-08T02:00:48.845Z,100003.53
2022-12-08T02:02:55.135Z,99996.50
2022-12-08T02:04:59.599Z,100003.63
2022-12-08T02:07:07.763Z,100000.94
2022-12-08T02:09:11.184Z,100000.44
2022-12-08T02:11:14.565Z,99995.19
2022-12-08T02:13:19.274Z,99993.97
2022-12-08T02:15:25.822Z,99982.81
2022-12-08T02:17:41.551Z,99994.22
2022-12-08T02:20:06.594Z,99987.50
2022-12-08T02:22:12.300Z,99991.69
2022-12-08T02:24:20.277Z,99985.66
2022-12-08T02:27:04.185Z,99989.91
2022-12-08T02:29:23.039Z,99991.50
2022-12-08T02:31:34.778Z,99988.31
2022-12-08T02:34:01.914Z,99979.00
2022-12-08T02:36:08.478Z,99974.41
2022-12-08T02:38:21.532Z,99968.75
2022-12-08T02:40:27.253Z,99974.81
2022-12-08T02:42:34.359Z,99966.63
2022-12-08T02:44:41.164Z,99964.84
2022-12-08T02:46:46.571Z,99961.56
2022-12-08T02:48:49.997Z,99963.97
2022-12-08T02:50:54.281Z,99956.19
2022-12-08T02:52:57.339Z,99956.41
2022-12-08T02:55:04.681Z,99957.94
2022-12-08T02:57:18.145Z,99956.31
2022-12-08T02:59:33.893Z,99943.16
2022-12-08T03:01:49.940Z,99942.84
2022-12-08T03:04:01.135Z,99935.25
2022-12-08T03:06:12.997Z,99939.25
2022-12-08T03:08:18.205Z,99930.78
2022-12-08T03:10:27.129Z,99928.97
2022-12-08T03:12:33.064Z,99928.13
2022-12-08T03:14:36.104Z,99924.66
2022-12-08T03:16:40.406Z,99922.88
2022-12-08T03:18:49.492Z,99912.28
2022-12-08T03:20:52.911Z,99919.34
2022-12-08T03:22:59.934Z,99914.44
2022-12-08T03:25:03.350Z,99904.66
2022-12-08T03:27:09.860Z,99902.63
2022-12-08T03:29:13.398Z,99908.97
2022-12-08T03:31:18.236Z,99905.25
2022-12-08T03:33:24.972Z,99900.72
2022-12-08T03:35:30.960Z,99895.63
2022-12-08T03:37:36.270Z,99889.53
2022-12-08T03:39:40.509Z,99887.75
2022-12-08T03:41:43.480Z,99884.38
2022-12-08T03:43:47.071Z,99886.94
2022-12-08T03:45:49.925Z,99882.69
2022-12-08T03:47:53.175Z,99878.50
2022-12-08T03:49:55.990Z,99872.25
2022-12-08T03:51:58.865Z,99873.19
2022-12-08T03:54:01.717Z,99868.69
2022-12-08T03:56:07.778Z,99859.09
2022-12-08T03:58:10.673Z,99854.09
2022-12-08T04:00:17.356Z,99861.47
2022-12-08T04:02:20.508Z,99852.84
2022-12-08T04:04:23.603Z,99846.88
2022-12-08T04:06:27.060Z,99849.47
2022-12-08T04:08:30.133Z,99858.28
2022-12-08T04:10:33.042Z,99851.38
2022-12-08T04:12:37.465Z,99860.22
2022-12-08T04:14:40.323Z,99851.31
2022-12-08T04:16:43.179Z,99837.28
2022-12-08T04:18:46.343Z,99851.56
2022-12-08T04:20:49.256Z,99842.50
2022-12-08T04:22:52.209Z,99846.88
2022-12-08T04:24:55.465Z,99840.94
2022-12-08T04:26:58.628Z,99845.22
2022-12-08T04:29:02.854Z,99838.72
2022-12-08T04:31:06.437Z,99843.03
2022-12-08T04:33:09.506Z,99845.13
2022-12-08T04:35:12.388Z,99837.94
2022-12-08T04:37:15.298Z,99831.25
2022-12-08T04:39:18.554Z,99832.19
2022-12-08T04:41:21.381Z,99834.88
2022-12-08T04:43:24.402Z,99830.81
2022-12-08T04:45:36.180Z,99832.41
2022-12-08T04:47:40.491Z,99830.41
2022-12-08T04:49:43.359Z,99824.97
2022-12-08T04:51:46.247Z,99828.84
2022-12-08T04:53:49.463Z,99830.44
2022-12-08T04:55:52.461Z,99816.66
2022-12-08T04:57:55.523Z,99827.09
2022-12-08T04:59:58.382Z,99826.09
2022-12-08T05:02:03.185Z,99831.31
2022-12-08T05:04:06.192Z,99825.31
2022-12-08T05:06:10.622Z,99827.13
2022-12-08T05:08:14.088Z,99826.19
2022-12-08T05:10:17.220Z,99822.06
2022-12-08T05:12:20.029Z,99822.41
2022-12-08T05:14:22.946Z,99820.38
2022-12-08T05:16:25.842Z,99826.56
2022-12-08T05:18:30.342Z,99821.53
2022-12-08T05:20:33.191Z,99817.63
2022-12-08T05:22:36.099Z,99824.03
2022-12-08T05:24:44.019Z,99828.28
2022-12-08T05:26:50.090Z,99827.09
2022-12-08T05:28:52.937Z,99824.47
2022-12-08T05:30:55.978Z,99818.59
2022-12-08T05:32:59.013Z,99817.03
2022-12-08T05:35:03.679Z,99820.53
2022-12-08T05:37:06.580Z,99813.44
2022-12-08T05:39:10.670Z,99814.44
2022-12-08T05:41:16.295Z,99813.75
2022-12-08T05:43:19.206Z,99816.09
2022-12-08T05:45:22.145Z,99811.25
2022-12-08T05:47:26.147Z,99812.00
2022-12-08T05:49:29.319Z,99806.63
2022-12-08T05:51:34.290Z,99803.78
2022-12-08T05:53:37.359Z,99813.75
2022-12-08T05:55:40.259Z,99807.63
2022-12-08T05:57:43.133Z,99803.31
2022-12-08T05:59:46.110Z,99800.84
2022-12-08T06:01:50.606Z,99792.72
2022-12-08T06:03:53.819Z,99787.06
2022-12-08T06:05:56.719Z,99789.34
2022-12-08T06:08:01.163Z,99789.28
2022-12-08T06:10:05.150Z,99787.75
2022-12-08T06:12:08.314Z,99786.69
2022-12-08T06:14:12.410Z,99786.56
2022-12-08T06:16:15.449Z,99783.28
2022-12-08T06:18:18.376Z,99783.13
2022-12-08T06:20:21.619Z,99783.41
2022-12-08T06:22:24.494Z,99781.63
2022-12-08T06:24:28.840Z,99778.81
2022-12-08T06:26:31.750Z,99783.31
2022-12-08T06:28:35.888Z,99785.06
2022-12-08T06:30:39.562Z,99787.91
2022-12-08T06:32:42.520Z,99789.69
2022-12-08T06:34:45.750Z,99783.72
2022-12-08T06:36:48.916Z,99784.31
2022-12-08T06:38:51.832Z,99782.41
2022-12-08T06:40:57.129Z,99784.97
2022-12-08T06:43:00.653Z,99780.72
2022-12-08T06:45:03.828Z,99779.81
2022-12-08T06:47:06.760Z,99786.69
2022-12-08T06:49:10.173Z,99788.41
2022-12-08T06:51:16.858Z,99790.94
2022-12-08T06:53:19.979Z,99783.84
2022-12-08T06:55:50.955Z,99790.38
2022-12-08T06:57:47.277Z,99790.91
2022-12-08T06:59:50.181Z,99789.03
2022-12-08T07:01:53.231Z,99791.53
2022-12-08T07:03:58.535Z,99791.13
2022-12-08T07:06:04.121Z,99792.41
2022-12-08T07:08:09.549Z,99792.97
2022-12-08T07:10:12.607Z,99789.25
2022-12-08T07:12:15.616Z,99792.47
2022-12-08T07:14:23.616Z,99793.25
2022-12-08T07:16:26.727Z,99795.66
2022-12-08T07:18:30.121Z,99792.25
2022-12-08T07:20:33.404Z,99793.25
2022-12-08T07:22:36.763Z,99793.84
2022-12-08T07:24:39.799Z,99805.91
2022-12-08T07:26:42.936Z,99801.53
2022-12-08T07:28:45.934Z,99804.16
2022-12-08T07:30:50.503Z,99799.75
2022-12-08T07:32:53.534Z,99803.25
2022-12-08T07:34:56.520Z,99796.69
2022-12-08T07:36:59.488Z,99795.44
2022-12-08T07:39:02.372Z,99800.19
2022-12-08T07:41:05.699Z,99797.00
2022-12-08T07:43:08.555Z,99793.44
2022-12-08T07:45:12.247Z,99799.53
2022-12-08T07:47:17.373Z,99797.00
2022-12-08T07:49:20.344Z,99792.31
2022-12-08T07:51:24.973Z,99792.31
2022-12-08T07:53:27.983Z,99786.28
2022-12-08T07:55:31.006Z,99790.53
2022-12-08T07:57:34.183Z,99799.69
2022-12-08T07:59:37.492Z,99796.66
2022-12-08T08:01:40.436Z,99800.34
2022-12-08T08:03:45.128Z,99797.75
2022-12-08T08:05:49.621Z,99797.91
2022-12-08T08:07:52.838Z,99793.44
2022-12-08T08:09:56.129Z,99790.00
2022-12-08T08:12:22.656Z,99794.97
2022-12-08T08:14:22.504Z,99793.72
2022-12-08T08:16:26.109Z,99786.69
2022-12-08T08:18:29.404Z,99784.13
2022-12-08T08:20:33.785Z,99788.53
2022-12-08T08:22:37.270Z,99796.09
2022-12-08T08:24:44.701Z,99792.59
2022-12-08T08:26:48.167Z,99797.28
2022-12-08T08:28:51.744Z,99800.47
2022-12-08T08:30:54.888Z,99797.91
2022-12-08T08:32:58.085Z,99805.75
2022-12-08T08:35:01.333Z,99800.44
2022-12-08T08:37:05.881Z,99792.94
2022-12-08T08:39:09.101Z,99798.88
2022-12-08T08:41:12.445Z,99793.78
2022-12-08T08:43:34.333Z,99799.72
2022-12-08T08:45:39.201Z,99799.53
2022-12-08T08:47:42.383Z,99802.22
2022-12-08T08:49:45.261Z,99802.09
2022-12-08T08:51:48.348Z,99803.22
2022-12-08T08:53:52.735Z,99799.91
2022-12-08T08:55:55.960Z,99804.00
2022-12-08T08:57:58.833Z,99803.34
2022-12-08T09:00:02.329Z,99807.38
2022-12-08T09:02:05.577Z,99809.31
2022-12-08T09:04:08.553Z,99810.13
2022-12-08T09:06:11.821Z,99819.75
2022-12-08T09:08:15.161Z,99811.00
2022-12-08T09:10:19.807Z,99816.94
2022-12-08T09:12:22.820Z,99805.53
2022-12-08T09:14:25.942Z,99805.94
2022-12-08T09:16:29.185Z,99808.44
2022-12-08T09:18:32.525Z,99810.06
2022-12-08T09:20:36.584Z,99815.41
2022-12-08T09:22:39.461Z,99807.41
2022-12-08T09:24:44.491Z,99814.38
2022-12-08T09:26:49.196Z,99812.56
2022-12-08T09:28:52.790Z,99817.63
2022-12-08T09:30:55.770Z,99810.50
2022-12-08T09:32:58.732Z,99817.69
2022-12-08T09:35:01.729Z,99813.69
2022-12-08T09:37:04.913Z,99820.13
2022-12-08T09:39:08.106Z,99817.47
2022-12-08T09:41:16.745Z,99815.72
2022-12-08T09:43:43.541Z,99814.84
2022-12-08T09:45:46.556Z,99818.25
2022-12-08T09:47:59.358Z,99814.94
2022-12-08T09:50:07.537Z,99813.94
2022-12-08T09:52:17.194Z,99813.66
2022-12-08T09:54:24.079Z,99814.59
2022-12-08T09:56:30.117Z,99815.53
2022-12-08T09:58:46.111Z,99814.81
2022-12-08T10:00:49.228Z,99812.53
2022-12-08T10:02:52.435Z,99813.22
2022-12-08T10:04:57.113Z,99809.59
2022-12-08T10:07:05.919Z,99807.56
2022-12-08T10:09:22.696Z,99808.97
2022-12-08T10:11:30.883Z,99811.97
2022-12-08T10:13:39.410Z,99812.50
2022-12-08T10:15:45.777Z,99807.16
2022-12-08T10:17:52.023Z,99808.47
2022-12-08T10:19:58.921Z,99807.38
2022-12-08T10:22:02.568Z,99799.97
2022-12-08T10:24:10.902Z,99802.34
2022-12-08T10:26:16.037Z,99799.16
2022-12-08T10:28:19.046Z,99804.44
2022-12-08T10:30:23.570Z,99804.38
2022-12-08T10:32:30.609Z,99805.09
2022-12-08T10:34:33.492Z,99795.28
2022-12-08T10:36:47.322Z,99796.09
2022-12-08T10:38:51.826Z,99795.63
2022-12-08T10:41:00.333Z,99799.44
2022-12-08T10:43:05.987Z,99791.84
2022-12-08T10:45:21.882Z,99806.03
2022-12-08T10:47:28.158Z,99799.31
2022-12-08T10:49:35.448Z,99793.03
2022-12-08T10:51:40.771Z,99790.38
2022-12-08T10:53:47.100Z,99791.16
2022-12-08T10:55:52.860Z,99794.75
2022-12-08T10:57:55.874Z,99790.94
2022-12-08T10:59:58.863Z,99789.28
2022-12-08T11:02:02.250Z,99787.81
2022-12-08T11:04:13.603Z,99786.56
2022-12-08T11:06:19.349Z,99787.22
2022-12-08T11:08:22.363Z,99784.31
2022-12-08T11:10:32.545Z,99783.56
2022-12-08T11:12:36.688Z,99783.56
2022-12-08T11:14:49.427Z,99776.47
2022-12-08T11:16:54.237Z,99778.72
2022-12-08T11:18:58.954Z,99771.75
2022-12-08T11:21:11.579Z,99772.41
2022-12-08T11:23:22.860Z,99772.25
2022-12-08T11:25:26.970Z,99767.06
2022-12-08T11:27:30.478Z,99767.53
2022-12-08T11:29:34.705Z,99766.81
2022-12-08T11:31:43.761Z,99757.78
2022-12-08T11:33:47.673Z,99763.38
2022-12-08T11:35:53.141Z,99759.53
2022-12-08T11:38:19.774Z,99756.63
2022-12-08T11:40:27.921Z,99767.81
2022-12-08T11:42:34.235Z,99766.03
2022-12-08T11:44:39.669Z,99759.59
2022-12-08T11:46:47.695Z,99762.69
2022-12-08T11:48:54.401Z,99761.78
2022-12-08T11:51:02.659Z,99756.50
2022-12-08T11:53:10.004Z,99761.31
2022-12-08T11:55:25.871Z,99756.47
2022-12-08T11:57:30.455Z,99757.66
2022-12-08T11:59:35.783Z,99756.22
2022-12-08T12:01:42.535Z,99755.88
2022-12-08T12:03:48.987Z,99755.31
2022-12-08T12:06:18.599Z,99751.59
2022-12-08T12:08:41.441Z,99757.59
2022-12-08T12:10:56.296Z,99750.00
2022-12-08T12:13:10.360Z,99755.19
2022-12-08T12:15:52.681Z,99755.84
2022-12-08T12:17:58.859Z,99751.50
2022-12-08T12:20:06.111Z,99755.69
2022-12-08T12:22:15.459Z,99750.47
2022-12-08T12:24:26.056Z,99756.69
2022-12-08T12:26:35.189Z,99754.94
2022-12-08T12:28:43.378Z,99753.25
2022-12-08T12:30:57.339Z,99755.06
2022-12-08T12:33:02.076Z,99748.94
2022-12-08T12:35:06.022Z,99747.97
2022-12-08T12:37:12.195Z,99750.94
2022-12-08T12:39:17.143Z,99750.66
2022-12-08T12:41:25.942Z,99748.94
2022-12-08T12:43:33.626Z,99750.59
2022-12-08T12:45:43.378Z,99747.03
2022-12-08T12:47:54.338Z,99748.88
2022-12-08T12:50:09.746Z,99750.00
2022-12-08T12:52:38.795Z,99749.72
2022-12-08T12:54:43.798Z,99745.19
2022-12-08T12:56:55.968Z,99753.31
2022-12-08T12:58:58.876Z,99756.38
2022-12-08T13:01:37.076Z,99747.66
2022-12-08T13:03:42.026Z,99754.56
2022-12-08T13:05:50.283Z,99751.97
2022-12-08T13:07:56.141Z,99751.97
2022-12-08T13:10:02.504Z,99747.28
2022-12-08T13:12:12.155Z,99738.47
2022-12-08T13:14:28.741Z,99741.22
2022-12-08T13:16:34.619Z,99744.75
2022-12-08T13:18:39.421Z,99746.28
2022-12-08T13:20:43.779Z,99742.44
2022-12-08T13:22:50.103Z,99746.47
2022-12-08T13:24:53.652Z,99750.47
2022-12-08T13:27:35.587Z,99739.41
2022-12-08T13:29:41.152Z,99740.22
2022-12-08T13:31:50.582Z,99741.16
2022-12-08T13:33:54.259Z,99742.19
2022-12-08T13:36:10.245Z,99737.88
2022-12-08T13:38:16.244Z,99740.66
2022-12-08T13:40:22.627Z,99752.00
2022-12-08T13:42:31.166Z,99743.38
2022-12-08T13:45:18.423Z,99742.69
2022-12-08T13:47:33.777Z,99742.00
2022-12-08T13:59:28.122Z,99734.53
2022-12-08T14:01:31.364Z,99741.44
2022-12-08T14:04:04.655Z,99741.34
2022-12-08T14:06:15.374Z,99742.28
2022-12-08T14:08:57.104Z,99741.34
2022-12-08T14:10:45.377Z,99734.47
2022-12-08T14:12:49.885Z,99739.75
2022-12-08T14:15:03.367Z,99743.38
2022-12-08T14:17:09.398Z,99738.78
2022-12-08T14:19:19.337Z,99734.34
2022-12-08T14:21:22.641Z,99741.25
2022-12-08T14:23:25.892Z,99737.75
2022-12-08T14:25:29.591Z,99741.31
2022-12-08T14:27:35.211Z,99738.72
2022-12-08T14:29:43.991Z,99739.50
2022-12-08T14:31:47.354Z,99744.69
2022-12-08T14:33:54.859Z,99737.69
2022-12-08T14:36:01.367Z,99738.47
2022-12-08T14:38:05.875Z,99744.59
2022-12-08T14:40:22.755Z,99748.25
2022-12-08T14:42:28.001Z,99743.03
2022-12-08T14:44:33.476Z,99743.84
2022-12-08T14:46:36.697Z,99739.28
2022-12-08T14:48:44.956Z,99737.50
2022-12-08T14:50:58.244Z,99739.13
2022-12-08T14:53:02.699Z,99739.34
2022-12-08T14:55:08.646Z,99744.47
2022-12-08T14:57:12.667Z,99744.56
2022-12-08T14:59:20.467Z,99744.47
2022-12-08T15:01:24.491Z,99747.81
2022-12-08T15:03:28.889Z,99747.78
2022-12-08T15:05:36.638Z,99739.22
2022-12-08T15:07:48.962Z,99740.78
2022-12-08T15:10:10.790Z,99739.00
2022-12-08T15:12:27.359Z,99748.75
2022-12-08T15:14:33.048Z,99742.63
2022-12-08T15:16:40.934Z,99745.09
2022-12-08T15:18:43.896Z,99743.34
2022-12-08T15:20:48.584Z,99739.88
2022-12-08T15:22:51.602Z,99747.63
2022-12-08T15:24:56.357Z,99745.81
2022-12-08T15:26:59.424Z,99746.19
2022-12-08T15:29:11.584Z,99758.06
2022-12-08T15:31:15.502Z,99753.59
2022-12-08T15:33:18.803Z,99757.81
2022-12-08T15:35:22.592Z,99752.72
2022-12-08T15:37:28.188Z,99745.63
2022-12-08T15:39:36.547Z,99757.03
2022-12-08T15:41:40.789Z,99746.47
2022-12-08T15:43:43.884Z,99759.50
2022-12-08T15:45:57.891Z,99747.31
2022-12-08T15:48:04.354Z,99747.31
2022-12-08T15:50:09.199Z,99743.66
2022-12-08T15:52:14.842Z,99746.38
2022-12-08T15:54:17.778Z,99749.16
2022-12-08T15:56:28.655Z,99748.88
2022-12-08T16:00:57.234Z,99748.81
2022-12-08T16:03:22.950Z,99745.22
2022-12-08T16:05:44.236Z,99745.13
2022-12-08T16:07:53.106Z,99748.06
2022-12-08T16:10:00.890Z,99747.03
2022-12-08T16:12:21.673Z,99746.16
2022-12-08T16:15:23.811Z,99748.63
2022-12-08T16:16:50.871Z,99744.22
2022-12-08T16:18:53.760Z,99746.72
2022-12-08T16:23:41.610Z,99750.06
2022-12-08T16:26:16.443Z,99750.00
2022-12-08T16:28:45.207Z,99743.88
2022-12-08T16:30:34.786Z,99744.84
2022-12-08T16:32:46.520Z,99737.91
2022-12-08T16:34:50.139Z,99739.63
2022-12-08T16:36:53.354Z,99746.06
2022-12-08T16:38:56.355Z,99745.19
2022-12-08T16:41:17.227Z,99749.44
2022-12-08T16:43:21.860Z,99749.31
2022-12-08T16:45:26.963Z,99752.75
2022-12-08T16:47:33.388Z,99751.03
2022-12-08T16:49:39.213Z,99734.50
2022-12-08T16:51:47.840Z,99742.47
2022-12-08T16:53:51.211Z,99742.28
2022-12-08T16:55:54.110Z,99739.91
2022-12-08T16:57:57.489Z,99741.88
2022-12-08T17:00:03.809Z,99738.25
2022-12-08T17:02:06.915Z,99735.63
2022-12-08T17:06:34.302Z,99738.25
2022-12-08T17:08:37.273Z,99745.31
2022-12-08T17:10:41.627Z,99743.78
2022-12-08T17:12:44.710Z,99745.19
2022-12-08T17:14:48.032Z,99742.41
2022-12-08T17:16:50.942Z,99743.13
2022-12-08T17:18:54.735Z,99748.44
2022-12-08T17:20:58.977Z,99756.13
2022-12-08T17:23:01.864Z,99760.44
2022-12-08T17:25:05.374Z,99753.34
2022-12-08T17:27:08.241Z,99748.28
2022-12-08T17:29:11.137Z,99743.84
2022-12-08T17:31:16.026Z,99746.47
2022-12-08T17:33:23.759Z,99741.25
2022-12-08T17:35:29.648Z,99743.88
2022-12-08T17:37:34.116Z,99740.47
2022-12-08T17:39:37.998Z,99736.06
2022-12-08T17:41:41.222Z,99743.13
2022-12-08T17:43:44.117Z,99741.50
2022-12-08T17:45:50.303Z,99738.84
2022-12-08T17:47:53.416Z,99733.63
2022-12-08T17:49:56.946Z,99735.44
2022-12-08T17:52:01.380Z,99736.13
2022-12-08T17:54:06.284Z,99729.22
2022-12-08T17:56:18.233Z,99732.81
2022-12-08T17:58:24.723Z,99728.59
2022-12-08T18:00:27.811Z,99731.09
2022-12-08T18:02:33.650Z,99732.66
2022-12-08T18:04:36.667Z,99736.47
2022-12-08T18:06:40.998Z,99731.06
2022-12-08T18:08:44.242Z,99729.25
2022-12-08T18:10:48.810Z,99732.53
2022-12-08T18:12:51.706Z,99726.44
2022-12-08T18:14:54.630Z,99730.13
2022-12-08T18:16:57.968Z,99736.13
2022-12-08T18:19:00.889Z,99735.25
2022-12-08T18:21:03.829Z,99736.03
2022-12-08T18:23:06.904Z,99731.59
2022-12-08T18:25:11.146Z,99726.31
2022-12-08T18:27:15.459Z,99725.63
2022-12-08T18:29:19.938Z,99729.13
2022-12-08T18:31:24.041Z,99719.59
2022-12-08T18:33:27.284Z,99724.09
2022-12-08T18:35:30.182Z,99726.03
2022-12-08T18:37:33.192Z,99736.31
2022-12-08T18:39:36.499Z,99720.75
2022-12-08T18:41:39.668Z,99729.28
2022-12-08T18:43:44.188Z,99730.34
2022-12-08T18:45:47.246Z,99731.75
2022-12-08T18:47:51.911Z,99726.63
2022-12-08T18:49:56.569Z,99732.66
2022-12-08T18:51:59.497Z,99731.88
2022-12-08T18:54:02.601Z,99733.34
2022-12-08T18:56:06.428Z,99735.34
2022-12-08T18:58:10.866Z,99735.38
2022-12-08T19:00:17.802Z,99730.63
2022-12-08T19:02:21.036Z,99736.81
2022-12-08T19:04:28.752Z,99738.44
2022-12-08T19:06:32.800Z,99733.13
2022-12-08T19:08:35.869Z,99746.16
2022-12-08T19:10:39.265Z,99741.94
2022-12-08T19:12:43.209Z,99741.06
2022-12-08T19:14:46.079Z,99742.69
2022-12-08T19:16:53.069Z,99740.28
2022-12-08T19:18:55.987Z,99741.06
2022-12-08T19:20:59.612Z,99743.69
2022-12-08T19:23:02.490Z,99741.16
2022-12-08T19:25:06.189Z,99735.94
2022-12-08T19:27:10.946Z,99737.50
2022-12-08T19:29:14.233Z,99746.22
2022-12-08T19:31:17.568Z,99744.53
2022-12-08T19:33:21.952Z,99742.00
2022-12-08T19:35:24.946Z,99741.94
2022-12-08T19:37:27.884Z,99734.00
2022-12-08T19:39:48.707Z,99736.56
2022-12-08T19:42:09.580Z,99735.75
2022-12-08T19:44:36.012Z,99738.34
2022-12-08T19:46:40.474Z,99740.97
2022-12-08T19:48:45.516Z,99736.69
2022-12-08T19:50:48.393Z,99740.28
2022-12-08T19:52:54.048Z,99734.28
2022-12-08T19:54:57.762Z,99730.72
2022-12-08T19:57:00.739Z,99734.41
2022-12-08T19:59:03.679Z,99737.81
2022-12-08T20:01:06.811Z,99736.81
2022-12-08T20:03:14.022Z,99739.56
2022-12-08T20:05:18.380Z,99742.09
2022-12-08T20:07:21.521Z,99744.84
2022-12-08T20:09:25.407Z,99735.06
2022-12-08T20:11:28.305Z,99750.63
2022-12-08T20:13:45.581Z,99741.81
2022-12-08T20:15:48.635Z,99740.84
2022-12-08T20:17:54.343Z,99750.38
2022-12-08T20:19:57.256Z,99758.16
2022-12-08T20:22:01.766Z,99759.88
2022-12-08T20:24:05.523Z,99753.81
2022-12-08T20:26:11.941Z,99762.38
2022-12-08T20:28:20.075Z,99756.34
2022-12-08T20:30:23.088Z,99757.28
2022-12-08T20:32:25.972Z,99752.94
2022-12-08T20:34:30.416Z,99755.63
2022-12-08T20:36:33.452Z,99750.25
2022-12-08T20:38:37.770Z,99755.25
2022-12-08T20:40:47.425Z,99757.91
2022-12-08T20:42:54.726Z,99757.88
2022-12-08T20:44:57.628Z,99756.09
2022-12-08T20:47:00.640Z,99753.44
2022-12-08T20:49:04.310Z,99754.34
2022-12-08T20:51:10.385Z,99763.06
2022-12-08T20:53:13.796Z,99762.22
2022-12-08T20:55:20.678Z,99773.53
2022-12-08T20:57:23.585Z,99763.13
2022-12-08T20:59:26.984Z,99769.38
2022-12-08T21:01:30.216Z,99770.13
2022-12-08T21:03:36.345Z,99773.81
2022-12-08T21:05:39.872Z,99770.38
2022-12-08T21:07:43.280Z,99766.81
2022-12-08T21:09:46.399Z,99769.34
2022-12-08T21:11:51.032Z,99765.91
2022-12-08T21:13:54.056Z,99763.97
2022-12-08T21:15:57.425Z,99764.84
2022-12-08T21:18:01.046Z,99765.66
2022-12-08T21:20:06.869Z,99766.56
2022-12-08T21:22:10.189Z,99765.72
2022-12-08T21:24:13.270Z,99762.59
2022-12-08T21:26:17.511Z,99764.94
2022-12-08T21:28:23.791Z,99762.31
2022-12-08T21:30:30.142Z,99766.81
2022-12-08T21:32:39.036Z,99768.66
2022-12-08T21:34:44.251Z,99762.66
2022-12-08T21:36:47.276Z,99768.09
2022-12-08T21:38:51.656Z,99764.38
2022-12-08T21:40:54.579Z,99765.56
2022-12-08T21:42:56.651Z,99766.16
2022-12-08T21:45:00.975Z,99773.28
2022-12-08T21:47:04.781Z,99769.66
2022-12-08T21:49:08.965Z,99768.66
2022-12-08T21:51:11.922Z,99770.38
2022-12-08T21:53:15.095Z,99774.56
2022-12-08T21:55:20.344Z,99771.91
2022-12-08T21:57:24.539Z,99772.97
2022-12-08T21:59:27.856Z,99765.31
2022-12-08T22:01:33.309Z,99760.63
2022-12-08T22:03:37.002Z,99766.63
2022-12-08T22:05:40.216Z,99759.81
2022-12-08T22:07:43.645Z,99765.91
2022-12-08T22:09:47.340Z,99758.22
2022-12-08T22:11:50.520Z,99762.63
2022-12-08T22:13:54.822Z,99765.91
2022-12-08T22:15:58.806Z,99758.84
2022-12-08T22:18:03.737Z,99767.53
2022-12-08T22:20:09.469Z,99767.94
2022-12-08T22:22:15.171Z,99768.59
2022-12-08T22:24:18.289Z,99763.38
2022-12-08T22:26:21.196Z,99766.63
2022-12-08T22:28:24.611Z,99770.06
2022-12-08T22:30:28.032Z,99768.28
2022-12-08T22:32:30.999Z,99767.41
2022-12-08T22:34:35.590Z,99764.75
2022-12-08T22:36:38.464Z,99766.53
2022-12-08T22:38:41.507Z,99756.91
2022-12-08T22:40:44.526Z,99763.84
2022-12-08T22:42:47.744Z,99757.75
2022-12-08T22:44:50.670Z,99757.75
2022-12-08T22:46:53.678Z,99766.53
2022-12-08T22:48:56.687Z,99755.41
2022-12-08T22:51:01.520Z,99756.28
2022-12-08T22:53:04.877Z,99768.59
2022-12-08T22:55:08.871Z,99767.41
2022-12-08T22:57:11.999Z,99757.78
2022-12-08T22:59:15.099Z,99762.09
2022-12-08T23:01:28.204Z,99761.19
2022-12-08T23:03:31.874Z,99754.22
2022-12-08T23:05:35.454Z,99756.00
2022-12-08T23:07:42.987Z,99752.50
2022-12-08T23:09:48.785Z,99749.16
2022-12-08T23:11:52.096Z,99749.00
2022-12-08T23:13:56.254Z,99748.13
2022-12-08T23:15:59.245Z,99752.88
2022-12-08T23:18:02.266Z,99758.16
2022-12-08T23:20:06.280Z,99751.78
2022-12-08T23:22:10.667Z,99748.31
2022-12-08T23:24:15.474Z,99751.06
2022-12-08T23:26:25.157Z,99751.06
2022-12-08T23:28:28.490Z,99753.69
2022-12-08T23:30:31.621Z,99759.88
2022-12-08T23:32:34.719Z,99749.56
2022-12-08T23:34:38.467Z,99753.97
2022-12-08T23:36:42.878Z,99751.31
2022-12-08T23:38:45.919Z,99746.97
2022-12-08T23:40:50.569Z,99751.44
2022-12-08T23:42:53.967Z,99750.88
2022-12-08T23:44:57.095Z,99747.34
2022-12-08T23:47:00.233Z,99744.72
2022-12-08T23:49:03.474Z,99736.97
2022-12-08T23:51:06.875Z,99745.63
2022-12-08T23:53:10.032Z,99745.63
2022-12-08T23:55:13.112Z,99743.06
2022-12-08T23:57:17.392Z,99746.75
2022-12-08T23:59:20.404Z,99731.06
